sensor_id;sensor_type;location;lat;lon;timestamp;temperature;humidity
33271;DHT22;53180;51.344;6.152;2023-02-01T00:01:22;6.10;88.90
33271;DHT22;53180;51.344;6.152;2023-02-01T00:03:52;6.20;88.90
33271;DHT22;53180;51.344;6.152;2023-02-01T00:06:20;6.20;88.80
33271;DHT22;53180;51.344;6.152;2023-02-01T00:08:48;6.20;88.60
33271;DHT22;53180;51.344;6.152;2023-02-01T00:11:20;6.20;88.40
33271;DHT22;53180;51.344;6.152;2023-02-01T00:13:49;6.20;88.10
33271;DHT22;53180;51.344;6.152;2023-02-01T00:16:19;6.20;87.90
33271;DHT22;53180;51.344;6.152;2023-02-01T00:18:49;6.10;87.70
33271;DHT22;53180;51.344;6.152;2023-02-01T00:21:20;6.10;87.10
33271;DHT22;53180;51.344;6.152;2023-02-01T00:23:49;6.10;87.10
33271;DHT22;53180;51.344;6.152;2023-02-01T00:26:19;6.00;87.00
33271;DHT22;53180;51.344;6.152;2023-02-01T00:28:50;5.90;87.00
33271;DHT22;53180;51.344;6.152;2023-02-01T00:31:18;5.80;86.90
33271;DHT22;53180;51.344;6.152;2023-02-01T00:33:47;5.80;87.00
33271;DHT22;53180;51.344;6.152;2023-02-01T00:36:16;5.80;86.90
33271;DHT22;53180;51.344;6.152;2023-02-01T00:38:46;5.70;86.70
33271;DHT22;53180;51.344;6.152;2023-02-01T00:41:16;5.70;86.80
33271;DHT22;53180;51.344;6.152;2023-02-01T00:43:46;5.60;86.70
33271;DHT22;53180;51.344;6.152;2023-02-01T00:46:16;5.50;86.70
33271;DHT22;53180;51.344;6.152;2023-02-01T00:48:45;5.50;86.60
33271;DHT22;53180;51.344;6.152;2023-02-01T00:51:15;5.40;86.50
33271;DHT22;53180;51.344;6.152;2023-02-01T00:53:46;5.40;86.40
33271;DHT22;53180;51.344;6.152;2023-02-01T00:56:14;5.40;86.20
33271;DHT22;53180;51.344;6.152;2023-02-01T00:58:43;5.40;86.20
33271;DHT22;53180;51.344;6.152;2023-02-01T01:01:16;5.30;85.90
33271;DHT22;53180;51.344;6.152;2023-02-01T01:03:48;5.30;85.60
33271;DHT22;53180;51.344;6.152;2023-02-01T01:06:19;5.30;85.40
33271;DHT22;53180;51.344;6.152;2023-02-01T01:08:50;5.20;85.40
33271;DHT22;53180;51.344;6.152;2023-02-01T01:11:22;5.20;85.30
33271;DHT22;53180;51.344;6.152;2023-02-01T01:13:53;5.20;85.40
33271;DHT22;53180;51.344;6.152;2023-02-01T01:16:24;5.10;85.20
33271;DHT22;53180;51.344;6.152;2023-02-01T01:18:53;5.00;85.30
33271;DHT22;53180;51.344;6.152;2023-02-01T01:21:22;5.10;85.20
33271;DHT22;53180;51.344;6.152;2023-02-01T01:23:52;5.10;85.00
33271;DHT22;53180;51.344;6.152;2023-02-01T01:26:23;5.10;84.70
33271;DHT22;53180;51.344;6.152;2023-02-01T01:28:54;5.00;84.70
33271;DHT22;53180;51.344;6.152;2023-02-01T01:31:23;5.00;84.60
33271;DHT22;53180;51.344;6.152;2023-02-01T01:33:53;5.00;84.60
33271;DHT22;53180;51.344;6.152;2023-02-01T01:36:23;5.00;84.60
33271;DHT22;53180;51.344;6.152;2023-02-01T01:38:54;5.00;84.80
33271;DHT22;53180;51.344;6.152;2023-02-01T01:41:24;4.90;84.80
33271;DHT22;53180;51.344;6.152;2023-02-01T01:43:56;4.90;84.80
33271;DHT22;53180;51.344;6.152;2023-02-01T01:46:25;4.90;84.80
33271;DHT22;53180;51.344;6.152;2023-02-01T01:49:00;4.90;84.70
33271;DHT22;53180;51.344;6.152;2023-02-01T01:51:32;4.80;84.80
33271;DHT22;53180;51.344;6.152;2023-02-01T01:54:08;4.80;84.80
33271;DHT22;53180;51.344;6.152;2023-02-01T01:56:40;4.70;84.80
33271;DHT22;53180;51.344;6.152;2023-02-01T01:59:09;4.70;84.90
33271;DHT22;53180;51.344;6.152;2023-02-01T02:01:38;4.70;85.30
33271;DHT22;53180;51.344;6.152;2023-02-01T02:04:07;4.70;85.20
33271;DHT22;53180;51.344;6.152;2023-02-01T02:06:40;4.70;85.10
33271;DHT22;53180;51.344;6.152;2023-02-01T02:09:14;4.70;85.10
33271;DHT22;53180;51.344;6.152;2023-02-01T02:11:42;4.70;85.10
33271;DHT22;53180;51.344;6.152;2023-02-01T02:14:13;4.60;85.10
33271;DHT22;53180;51.344;6.152;2023-02-01T02:17:10;4.60;85.30
33271;DHT22;53180;51.344;6.152;2023-02-01T02:20:11;4.60;85.30
33271;DHT22;53180;51.344;6.152;2023-02-01T02:23:29;4.60;85.50
33271;DHT22;53180;51.344;6.152;2023-02-01T02:36:01;4.40;86.10
33271;DHT22;53180;51.344;6.152;2023-02-01T02:38:36;4.40;86.20
33271;DHT22;53180;51.344;6.152;2023-02-01T02:41:13;4.40;86.30
33271;DHT22;53180;51.344;6.152;2023-02-01T02:44:10;4.30;86.50
33271;DHT22;53180;51.344;6.152;2023-02-01T02:47:04;4.30;86.70
33271;DHT22;53180;51.344;6.152;2023-02-01T02:50:09;4.30;86.70
33271;DHT22;53180;51.344;6.152;2023-02-01T02:53:03;4.30;86.80
33271;DHT22;53180;51.344;6.152;2023-02-01T02:55:52;4.30;86.90
33271;DHT22;53180;51.344;6.152;2023-02-01T02:58:38;4.30;87.10
33271;DHT22;53180;51.344;6.152;2023-02-01T03:01:24;4.30;87.10
33271;DHT22;53180;51.344;6.152;2023-02-01T03:04:10;4.40;87.20
33271;DHT22;53180;51.344;6.152;2023-02-01T03:06:44;4.50;87.20
33271;DHT22;53180;51.344;6.152;2023-02-01T03:09:19;4.60;87.00
33271;DHT22;53180;51.344;6.152;2023-02-01T03:11:55;4.60;87.00
33271;DHT22;53180;51.344;6.152;2023-02-01T03:14:47;4.70;86.90
33271;DHT22;53180;51.344;6.152;2023-02-01T03:17:22;4.70;86.80
33271;DHT22;53180;51.344;6.152;2023-02-01T03:19:54;4.80;86.70
33271;DHT22;53180;51.344;6.152;2023-02-01T03:22:27;4.80;86.60
33271;DHT22;53180;51.344;6.152;2023-02-01T03:25:05;4.80;86.60
33271;DHT22;53180;51.344;6.152;2023-02-01T03:27:40;4.90;86.60
33271;DHT22;53180;51.344;6.152;2023-02-01T03:30:16;4.90;86.50
33271;DHT22;53180;51.344;6.152;2023-02-01T03:32:50;4.90;86.40
33271;DHT22;53180;51.344;6.152;2023-02-01T03:35:32;4.90;86.40
33271;DHT22;53180;51.344;6.152;2023-02-01T03:38:08;4.90;86.40
33271;DHT22;53180;51.344;6.152;2023-02-01T03:40:45;4.90;86.30
33271;DHT22;53180;51.344;6.152;2023-02-01T03:43:19;4.90;86.30
33271;DHT22;53180;51.344;6.152;2023-02-01T03:45:50;4.90;86.30
33271;DHT22;53180;51.344;6.152;2023-02-01T03:48:22;5.00;86.20
33271;DHT22;53180;51.344;6.152;2023-02-01T03:50:54;5.00;86.00
33271;DHT22;53180;51.344;6.152;2023-02-01T03:53:25;5.00;86.00
33271;DHT22;53180;51.344;6.152;2023-02-01T03:55:56;5.00;85.80
33271;DHT22;53180;51.344;6.152;2023-02-01T03:58:25;5.00;85.90
33271;DHT22;53180;51.344;6.152;2023-02-01T04:00:56;5.10;85.90
33271;DHT22;53180;51.344;6.152;2023-02-01T04:03:26;5.00;85.80
33271;DHT22;53180;51.344;6.152;2023-02-01T04:05:55;5.10;85.70
33271;DHT22;53180;51.344;6.152;2023-02-01T04:08:24;5.00;85.60
33271;DHT22;53180;51.344;6.152;2023-02-01T04:10:52;5.00;85.60
33271;DHT22;53180;51.344;6.152;2023-02-01T04:13:22;5.00;85.50
33271;DHT22;53180;51.344;6.152;2023-02-01T04:15:50;5.00;85.40
33271;DHT22;53180;51.344;6.152;2023-02-01T04:18:18;5.00;85.40
33271;DHT22;53180;51.344;6.152;2023-02-01T04:20:47;5.00;85.50
33271;DHT22;53180;51.344;6.152;2023-02-01T04:23:15;4.90;85.50
33271;DHT22;53180;51.344;6.152;2023-02-01T04:25:43;4.90;85.60
33271;DHT22;53180;51.344;6.152;2023-02-01T04:28:12;4.90;85.60
33271;DHT22;53180;51.344;6.152;2023-02-01T04:30:41;4.90;85.80
33271;DHT22;53180;51.344;6.152;2023-02-01T04:33:10;4.80;85.80
33271;DHT22;53180;51.344;6.152;2023-02-01T04:35:40;4.80;85.80
33271;DHT22;53180;51.344;6.152;2023-02-01T04:38:09;4.80;85.90
33271;DHT22;53180;51.344;6.152;2023-02-01T04:40:37;4.80;85.80
33271;DHT22;53180;51.344;6.152;2023-02-01T04:43:06;4.80;85.80
33271;DHT22;53180;51.344;6.152;2023-02-01T04:45:34;4.80;85.80
33271;DHT22;53180;51.344;6.152;2023-02-01T04:48:04;4.80;85.80
33271;DHT22;53180;51.344;6.152;2023-02-01T04:50:33;4.80;85.70
33271;DHT22;53180;51.344;6.152;2023-02-01T04:53:01;4.70;85.80
33271;DHT22;53180;51.344;6.152;2023-02-01T04:55:30;4.70;85.80
33271;DHT22;53180;51.344;6.152;2023-02-01T04:57:58;4.70;85.90
33271;DHT22;53180;51.344;6.152;2023-02-01T05:00:26;4.70;86.00
33271;DHT22;53180;51.344;6.152;2023-02-01T05:02:55;4.70;85.90
33271;DHT22;53180;51.344;6.152;2023-02-01T05:05:25;4.60;86.00
33271;DHT22;53180;51.344;6.152;2023-02-01T05:07:54;4.60;86.10
33271;DHT22;53180;51.344;6.152;2023-02-01T05:10:22;4.50;86.10
33271;DHT22;53180;51.344;6.152;2023-02-01T05:12:51;4.60;86.10
33271;DHT22;53180;51.344;6.152;2023-02-01T05:15:37;4.60;86.10
33271;DHT22;53180;51.344;6.152;2023-02-01T05:18:06;4.60;86.00
33271;DHT22;53180;51.344;6.152;2023-02-01T05:20:36;4.60;86.00
33271;DHT22;53180;51.344;6.152;2023-02-01T05:23:04;4.60;86.00
33271;DHT22;53180;51.344;6.152;2023-02-01T05:25:33;4.60;86.00
33271;DHT22;53180;51.344;6.152;2023-02-01T05:28:01;4.60;86.10
33271;DHT22;53180;51.344;6.152;2023-02-01T05:30:30;4.60;86.10
33271;DHT22;53180;51.344;6.152;2023-02-01T05:32:59;4.60;86.10
33271;DHT22;53180;51.344;6.152;2023-02-01T05:35:27;4.60;86.10
33271;DHT22;53180;51.344;6.152;2023-02-01T05:37:57;4.60;86.00
33271;DHT22;53180;51.344;6.152;2023-02-01T05:40:25;4.60;86.00
33271;DHT22;53180;51.344;6.152;2023-02-01T05:42:54;4.60;86.00
33271;DHT22;53180;51.344;6.152;2023-02-01T05:45:22;4.60;85.90
33271;DHT22;53180;51.344;6.152;2023-02-01T05:47:50;4.70;85.90
33271;DHT22;53180;51.344;6.152;2023-02-01T05:50:19;4.70;85.80
33271;DHT22;53180;51.344;6.152;2023-02-01T05:52:48;4.70;85.70
33271;DHT22;53180;51.344;6.152;2023-02-01T05:55:18;4.70;85.70
33271;DHT22;53180;51.344;6.152;2023-02-01T05:57:46;4.80;85.60
33271;DHT22;53180;51.344;6.152;2023-02-01T06:00:15;4.80;85.60
33271;DHT22;53180;51.344;6.152;2023-02-01T06:02:46;4.80;85.50
33271;DHT22;53180;51.344;6.152;2023-02-01T06:05:15;4.90;85.60
33271;DHT22;53180;51.344;6.152;2023-02-01T06:07:43;4.80;85.70
33271;DHT22;53180;51.344;6.152;2023-02-01T06:10:12;4.90;85.50
33271;DHT22;53180;51.344;6.152;2023-02-01T06:12:42;4.90;85.40
33271;DHT22;53180;51.344;6.152;2023-02-01T06:15:11;4.90;85.50
33271;DHT22;53180;51.344;6.152;2023-02-01T06:17:43;5.00;85.50
33271;DHT22;53180;51.344;6.152;2023-02-01T06:20:13;5.00;85.50
33271;DHT22;53180;51.344;6.152;2023-02-01T06:22:42;5.00;85.30
33271;DHT22;53180;51.344;6.152;2023-02-01T06:25:13;5.10;85.20
33271;DHT22;53180;51.344;6.152;2023-02-01T06:27:44;5.10;85.30
33271;DHT22;53180;51.344;6.152;2023-02-01T06:30:13;5.10;85.20
33271;DHT22;53180;51.344;6.152;2023-02-01T06:32:42;5.10;85.10
33271;DHT22;53180;51.344;6.152;2023-02-01T06:35:10;5.10;85.20
33271;DHT22;53180;51.344;6.152;2023-02-01T06:37:42;5.10;85.10
33271;DHT22;53180;51.344;6.152;2023-02-01T06:40:12;5.10;85.20
33271;DHT22;53180;51.344;6.152;2023-02-01T06:42:40;5.10;85.20
33271;DHT22;53180;51.344;6.152;2023-02-01T06:45:10;5.20;85.30
33271;DHT22;53180;51.344;6.152;2023-02-01T06:47:39;5.20;85.20
33271;DHT22;53180;51.344;6.152;2023-02-01T06:50:08;5.20;85.10
33271;DHT22;53180;51.344;6.152;2023-02-01T06:52:37;5.20;85.10
33271;DHT22;53180;51.344;6.152;2023-02-01T06:55:06;5.20;85.20
33271;DHT22;53180;51.344;6.152;2023-02-01T06:57:35;5.20;85.30
33271;DHT22;53180;51.344;6.152;2023-02-01T07:00:05;5.20;85.20
33271;DHT22;53180;51.344;6.152;2023-02-01T07:02:35;5.30;85.20
33271;DHT22;53180;51.344;6.152;2023-02-01T07:05:05;5.30;85.10
33271;DHT22;53180;51.344;6.152;2023-02-01T07:07:33;5.40;85.00
33271;DHT22;53180;51.344;6.152;2023-02-01T07:10:02;5.40;84.90
33271;DHT22;53180;51.344;6.152;2023-02-01T07:12:31;5.40;84.80
33271;DHT22;53180;51.344;6.152;2023-02-01T07:14:59;5.40;84.60
33271;DHT22;53180;51.344;6.152;2023-02-01T07:17:29;5.40;84.60
33271;DHT22;53180;51.344;6.152;2023-02-01T07:19:58;5.50;84.50
33271;DHT22;53180;51.344;6.152;2023-02-01T07:22:28;5.50;84.50
33271;DHT22;53180;51.344;6.152;2023-02-01T07:24:57;5.50;84.30
33271;DHT22;53180;51.344;6.152;2023-02-01T07:27:25;5.50;84.50
33271;DHT22;53180;51.344;6.152;2023-02-01T07:29:53;5.50;84.50
33271;DHT22;53180;51.344;6.152;2023-02-01T07:32:22;5.50;84.50
33271;DHT22;53180;51.344;6.152;2023-02-01T07:34:50;5.50;84.40
33271;DHT22;53180;51.344;6.152;2023-02-01T07:37:20;5.50;84.30
33271;DHT22;53180;51.344;6.152;2023-02-01T07:39:50;5.60;84.40
33271;DHT22;53180;51.344;6.152;2023-02-01T07:42:19;5.60;84.30
33271;DHT22;53180;51.344;6.152;2023-02-01T07:44:47;5.50;84.30
33271;DHT22;53180;51.344;6.152;2023-02-01T07:47:15;5.50;84.30
33271;DHT22;53180;51.344;6.152;2023-02-01T07:49:44;5.50;84.10
33271;DHT22;53180;51.344;6.152;2023-02-01T07:52:14;5.50;84.00
33271;DHT22;53180;51.344;6.152;2023-02-01T07:54:44;5.50;84.30
33271;DHT22;53180;51.344;6.152;2023-02-01T07:57:13;5.50;84.30
33271;DHT22;53180;51.344;6.152;2023-02-01T07:59:41;5.40;84.30
33271;DHT22;53180;51.344;6.152;2023-02-01T08:02:23;5.40;84.40
33271;DHT22;53180;51.344;6.152;2023-02-01T08:04:52;5.40;84.40
33271;DHT22;53180;51.344;6.152;2023-02-01T08:07:21;5.40;84.50
33271;DHT22;53180;51.344;6.152;2023-02-01T08:09:51;5.30;84.60
33271;DHT22;53180;51.344;6.152;2023-02-01T08:12:19;5.30;84.60
33271;DHT22;53180;51.344;6.152;2023-02-01T08:14:47;5.30;84.50
33271;DHT22;53180;51.344;6.152;2023-02-01T08:17:16;5.30;84.40
33271;DHT22;53180;51.344;6.152;2023-02-01T08:19:44;5.30;84.60
33271;DHT22;53180;51.344;6.152;2023-02-01T08:22:12;5.30;84.60
33271;DHT22;53180;51.344;6.152;2023-02-01T08:24:41;5.30;84.60
33271;DHT22;53180;51.344;6.152;2023-02-01T08:27:10;5.30;84.60
33271;DHT22;53180;51.344;6.152;2023-02-01T08:29:39;5.30;84.70
33271;DHT22;53180;51.344;6.152;2023-02-01T08:32:07;5.30;84.60
33271;DHT22;53180;51.344;6.152;2023-02-01T08:34:37;5.30;84.60
33271;DHT22;53180;51.344;6.152;2023-02-01T08:37:05;5.30;84.70
33271;DHT22;53180;51.344;6.152;2023-02-01T08:39:34;5.40;84.70
33271;DHT22;53180;51.344;6.152;2023-02-01T08:42:03;5.40;84.60
33271;DHT22;53180;51.344;6.152;2023-02-01T08:44:50;5.40;84.40
33271;DHT22;53180;51.344;6.152;2023-02-01T08:47:19;5.40;84.20
33271;DHT22;53180;51.344;6.152;2023-02-01T08:49:47;5.50;84.40
33271;DHT22;53180;51.344;6.152;2023-02-01T08:52:15;5.60;84.10
33271;DHT22;53180;51.344;6.152;2023-02-01T08:54:44;5.60;84.00
33271;DHT22;53180;51.344;6.152;2023-02-01T08:57:12;5.60;84.00
33271;DHT22;53180;51.344;6.152;2023-02-01T08:59:41;5.60;84.20
33271;DHT22;53180;51.344;6.152;2023-02-01T09:02:14;5.60;84.40
33271;DHT22;53180;51.344;6.152;2023-02-01T09:04:43;5.60;84.30
33271;DHT22;53180;51.344;6.152;2023-02-01T09:07:11;5.60;84.20
33271;DHT22;53180;51.344;6.152;2023-02-01T09:09:40;5.60;84.10
33271;DHT22;53180;51.344;6.152;2023-02-01T09:12:09;5.60;84.20
33271;DHT22;53180;51.344;6.152;2023-02-01T09:14:37;5.70;84.00
33271;DHT22;53180;51.344;6.152;2023-02-01T09:17:06;5.70;84.10
33271;DHT22;53180;51.344;6.152;2023-02-01T09:19:36;5.80;83.80
33271;DHT22;53180;51.344;6.152;2023-02-01T09:22:04;5.90;83.80
33271;DHT22;53180;51.344;6.152;2023-02-01T09:24:32;5.90;83.60
33271;DHT22;53180;51.344;6.152;2023-02-01T09:27:01;6.00;83.70
33271;DHT22;53180;51.344;6.152;2023-02-01T09:29:29;6.00;83.50
33271;DHT22;53180;51.344;6.152;2023-02-01T09:31:58;6.10;83.50
33271;DHT22;53180;51.344;6.152;2023-02-01T09:34:30;6.00;83.40
33271;DHT22;53180;51.344;6.152;2023-02-01T09:37:00;6.10;83.30
33271;DHT22;53180;51.344;6.152;2023-02-01T09:39:29;6.10;83.30
33271;DHT22;53180;51.344;6.152;2023-02-01T09:42:10;6.10;83.50
33271;DHT22;53180;51.344;6.152;2023-02-01T09:44:56;6.10;83.10
33271;DHT22;53180;51.344;6.152;2023-02-01T09:47:30;6.20;83.20
33271;DHT22;53180;51.344;6.152;2023-02-01T09:50:02;6.20;82.90
33271;DHT22;53180;51.344;6.152;2023-02-01T09:52:41;6.20;82.80
33271;DHT22;53180;51.344;6.152;2023-02-01T09:55:16;6.30;82.60
33271;DHT22;53180;51.344;6.152;2023-02-01T09:57:52;6.30;82.30
33271;DHT22;53180;51.344;6.152;2023-02-01T10:00:27;6.50;82.50
33271;DHT22;53180;51.344;6.152;2023-02-01T10:02:57;6.70;81.80
33271;DHT22;53180;51.344;6.152;2023-02-01T10:05:43;6.60;81.70
33271;DHT22;53180;51.344;6.152;2023-02-01T10:08:32;6.60;81.70
33271;DHT22;53180;51.344;6.152;2023-02-01T10:11:12;6.70;81.50
33271;DHT22;53180;51.344;6.152;2023-02-01T10:13:53;6.60;81.60
33271;DHT22;53180;51.344;6.152;2023-02-01T10:16:33;6.60;81.70
33271;DHT22;53180;51.344;6.152;2023-02-01T10:19:27;6.60;81.50
33271;DHT22;53180;51.344;6.152;2023-02-01T10:22:05;6.60;81.60
33271;DHT22;53180;51.344;6.152;2023-02-01T10:24:40;6.60;81.50
33271;DHT22;53180;51.344;6.152;2023-02-01T10:27:15;6.60;81.40
33271;DHT22;53180;51.344;6.152;2023-02-01T10:29:51;6.60;81.30
33271;DHT22;53180;51.344;6.152;2023-02-01T10:32:29;6.60;81.50
33271;DHT22;53180;51.344;6.152;2023-02-01T10:35:00;6.60;81.50
33271;DHT22;53180;51.344;6.152;2023-02-01T10:37:31;6.80;81.30
33271;DHT22;53180;51.344;6.152;2023-02-01T10:40:15;6.80;81.00
33271;DHT22;53180;51.344;6.152;2023-02-01T10:42:44;6.80;80.90
33271;DHT22;53180;51.344;6.152;2023-02-01T10:45:16;6.80;81.00
33271;DHT22;53180;51.344;6.152;2023-02-01T10:47:46;6.80;80.90
33271;DHT22;53180;51.344;6.152;2023-02-01T10:50:22;6.80;80.40
33271;DHT22;53180;51.344;6.152;2023-02-01T10:53:03;6.80;80.50
33271;DHT22;53180;51.344;6.152;2023-02-01T10:55:38;6.90;80.20
33271;DHT22;53180;51.344;6.152;2023-02-01T10:58:15;7.00;80.10
33271;DHT22;53180;51.344;6.152;2023-02-01T11:00:47;7.00;80.10
33271;DHT22;53180;51.344;6.152;2023-02-01T11:03:39;7.00;79.70
33271;DHT22;53180;51.344;6.152;2023-02-01T11:06:18;7.00;80.20
33271;DHT22;53180;51.344;6.152;2023-02-01T11:08:52;7.10;80.10
33271;DHT22;53180;51.344;6.152;2023-02-01T11:11:23;7.10;79.70
33271;DHT22;53180;51.344;6.152;2023-02-01T11:13:55;7.10;79.90
33271;DHT22;53180;51.344;6.152;2023-02-01T11:16:34;7.10;79.30
33271;DHT22;53180;51.344;6.152;2023-02-01T11:19:04;7.20;79.50
33271;DHT22;53180;51.344;6.152;2023-02-01T11:21:34;7.20;79.60
33271;DHT22;53180;51.344;6.152;2023-02-01T11:24:22;7.20;79.60
33271;DHT22;53180;51.344;6.152;2023-02-01T11:26:55;7.20;79.40
33271;DHT22;53180;51.344;6.152;2023-02-01T11:29:26;7.30;79.40
33271;DHT22;53180;51.344;6.152;2023-02-01T11:31:59;7.30;79.40
33271;DHT22;53180;51.344;6.152;2023-02-01T11:34:32;7.30;79.40
33271;DHT22;53180;51.344;6.152;2023-02-01T11:37:04;7.30;79.40
33271;DHT22;53180;51.344;6.152;2023-02-01T11:39:41;7.30;79.00
33271;DHT22;53180;51.344;6.152;2023-02-01T11:42:15;7.30;78.90
33271;DHT22;53180;51.344;6.152;2023-02-01T11:44:45;7.40;79.00
33271;DHT22;53180;51.344;6.152;2023-02-01T11:47:25;7.40;78.50
33271;DHT22;53180;51.344;6.152;2023-02-01T11:49:57;7.50;78.60
33271;DHT22;53180;51.344;6.152;2023-02-01T11:52:30;7.50;78.00
33271;DHT22;53180;51.344;6.152;2023-02-01T11:55:37;7.50;78.00
33271;DHT22;53180;51.344;6.152;2023-02-01T11:58:29;7.50;77.30
33271;DHT22;53180;51.344;6.152;2023-02-01T12:01:36;7.50;77.50
33271;DHT22;53180;51.344;6.152;2023-02-01T12:07:54;7.50;76.50
33271;DHT22;53180;51.344;6.152;2023-02-01T12:10:38;7.60;75.60
33271;DHT22;53180;51.344;6.152;2023-02-01T12:13:23;7.60;75.60
33271;DHT22;53180;51.344;6.152;2023-02-01T12:16:06;7.60;75.70
33271;DHT22;53180;51.344;6.152;2023-02-01T12:19:11;7.60;75.60
33271;DHT22;53180;51.344;6.152;2023-02-01T12:21:57;7.60;75.60
33271;DHT22;53180;51.344;6.152;2023-02-01T12:28:01;7.70;75.20
33271;DHT22;53180;51.344;6.152;2023-02-01T12:31:02;7.70;74.90
33271;DHT22;53180;51.344;6.152;2023-02-01T12:33:55;7.70;74.60
33271;DHT22;53180;51.344;6.152;2023-02-01T12:36:44;7.70;74.80
33271;DHT22;53180;51.344;6.152;2023-02-01T12:39:22;7.80;74.30
33271;DHT22;53180;51.344;6.152;2023-02-01T12:41:58;7.80;74.20
33271;DHT22;53180;51.344;6.152;2023-02-01T12:44:37;7.80;74.20
33271;DHT22;53180;51.344;6.152;2023-02-01T12:47:16;7.90;74.40
33271;DHT22;53180;51.344;6.152;2023-02-01T12:49:53;7.90;74.30
33271;DHT22;53180;51.344;6.152;2023-02-01T12:52:30;7.90;73.90
33271;DHT22;53180;51.344;6.152;2023-02-01T12:55:07;7.90;74.00
33271;DHT22;53180;51.344;6.152;2023-02-01T12:57:44;7.90;74.40
33271;DHT22;53180;51.344;6.152;2023-02-01T13:00:22;7.90;74.00
33271;DHT22;53180;51.344;6.152;2023-02-01T13:03:01;7.90;73.80
33271;DHT22;53180;51.344;6.152;2023-02-01T13:05:40;7.90;74.20
33271;DHT22;53180;51.344;6.152;2023-02-01T13:08:15;7.90;74.30
33271;DHT22;53180;51.344;6.152;2023-02-01T13:10:54;7.90;73.90
33271;DHT22;53180;51.344;6.152;2023-02-01T13:13:30;8.00;74.10
33271;DHT22;53180;51.344;6.152;2023-02-01T13:16:09;8.00;74.10
33271;DHT22;53180;51.344;6.152;2023-02-01T13:18:49;7.90;74.10
33271;DHT22;53180;51.344;6.152;2023-02-01T13:21:23;7.90;74.40
33271;DHT22;53180;51.344;6.152;2023-02-01T13:23:53;8.00;74.40
33271;DHT22;53180;51.344;6.152;2023-02-01T13:26:22;8.00;74.20
33271;DHT22;53180;51.344;6.152;2023-02-01T13:28:52;8.00;73.90
33271;DHT22;53180;51.344;6.152;2023-02-01T13:31:36;8.10;73.90
33271;DHT22;53180;51.344;6.152;2023-02-01T13:38:04;8.10;74.00
33271;DHT22;53180;51.344;6.152;2023-02-01T13:40:40;8.20;74.30
33271;DHT22;53180;51.344;6.152;2023-02-01T13:43:14;8.30;73.90
33271;DHT22;53180;51.344;6.152;2023-02-01T13:45:47;8.30;73.40
33271;DHT22;53180;51.344;6.152;2023-02-01T13:48:28;8.30;73.30
33271;DHT22;53180;51.344;6.152;2023-02-01T13:50:59;8.20;73.20
33271;DHT22;53180;51.344;6.152;2023-02-01T13:53:30;8.20;73.80
33271;DHT22;53180;51.344;6.152;2023-02-01T13:56:02;8.20;73.70
33271;DHT22;53180;51.344;6.152;2023-02-01T13:58:35;8.20;73.70
33271;DHT22;53180;51.344;6.152;2023-02-01T14:01:32;8.20;73.40
33271;DHT22;53180;51.344;6.152;2023-02-01T14:04:04;8.20;73.80
33271;DHT22;53180;51.344;6.152;2023-02-01T14:06:42;8.20;73.90
33271;DHT22;53180;51.344;6.152;2023-02-01T14:09:18;8.20;74.40
33271;DHT22;53180;51.344;6.152;2023-02-01T14:11:50;8.20;74.20
33271;DHT22;53180;51.344;6.152;2023-02-01T14:14:44;8.20;74.00
33271;DHT22;53180;51.344;6.152;2023-02-01T14:17:34;8.20;74.50
33271;DHT22;53180;51.344;6.152;2023-02-01T14:23:37;8.30;74.30
33271;DHT22;53180;51.344;6.152;2023-02-01T14:26:14;8.30;74.00
33271;DHT22;53180;51.344;6.152;2023-02-01T14:29:01;8.30;74.10
33271;DHT22;53180;51.344;6.152;2023-02-01T14:31:52;8.20;74.60
33271;DHT22;53180;51.344;6.152;2023-02-01T14:34:48;8.20;74.20
33271;DHT22;53180;51.344;6.152;2023-02-01T14:37:28;8.20;74.70
33271;DHT22;53180;51.344;6.152;2023-02-01T14:40:00;8.20;74.80
33271;DHT22;53180;51.344;6.152;2023-02-01T14:42:39;8.30;74.70
33271;DHT22;53180;51.344;6.152;2023-02-01T14:45:47;8.30;74.60
33271;DHT22;53180;51.344;6.152;2023-02-01T14:48:41;8.20;74.90
33271;DHT22;53180;51.344;6.152;2023-02-01T14:51:14;8.20;75.00
33271;DHT22;53180;51.344;6.152;2023-02-01T14:53:45;8.20;75.00
33271;DHT22;53180;51.344;6.152;2023-02-01T14:56:17;8.20;75.10
33271;DHT22;53180;51.344;6.152;2023-02-01T14:58:53;8.20;75.30
33271;DHT22;53180;51.344;6.152;2023-02-01T15:01:26;8.20;75.20
33271;DHT22;53180;51.344;6.152;2023-02-01T15:04:03;8.20;75.30
33271;DHT22;53180;51.344;6.152;2023-02-01T15:06:37;8.20;75.40
33271;DHT22;53180;51.344;6.152;2023-02-01T15:09:10;8.10;75.40
33271;DHT22;53180;51.344;6.152;2023-02-01T15:12:03;8.10;75.60
33271;DHT22;53180;51.344;6.152;2023-02-01T15:14:35;8.10;75.60
33271;DHT22;53180;51.344;6.152;2023-02-01T15:17:18;8.10;75.70
33271;DHT22;53180;51.344;6.152;2023-02-01T15:19:53;8.10;75.90
33271;DHT22;53180;51.344;6.152;2023-02-01T15:22:22;8.00;76.30
33271;DHT22;53180;51.344;6.152;2023-02-01T15:24:52;8.00;76.30
33271;DHT22;53180;51.344;6.152;2023-02-01T15:27:23;8.00;76.10
33271;DHT22;53180;51.344;6.152;2023-02-01T15:29:52;8.00;76.50
33271;DHT22;53180;51.344;6.152;2023-02-01T15:32:31;8.00;76.30
33271;DHT22;53180;51.344;6.152;2023-02-01T15:35:00;8.00;76.40
33271;DHT22;53180;51.344;6.152;2023-02-01T15:37:29;8.00;76.50
33271;DHT22;53180;51.344;6.152;2023-02-01T15:40:19;8.00;76.40
33271;DHT22;53180;51.344;6.152;2023-02-01T15:42:54;8.00;76.60
33271;DHT22;53180;51.344;6.152;2023-02-01T15:45:27;8.00;76.50
33271;DHT22;53180;51.344;6.152;2023-02-01T15:47:58;8.00;76.80
33271;DHT22;53180;51.344;6.152;2023-02-01T15:50:29;8.00;76.70
33271;DHT22;53180;51.344;6.152;2023-02-01T15:52:59;7.90;76.80
33271;DHT22;53180;51.344;6.152;2023-02-01T15:55:34;8.00;76.80
33271;DHT22;53180;51.344;6.152;2023-02-01T15:58:18;8.00;76.90
33271;DHT22;53180;51.344;6.152;2023-02-01T16:00:50;8.00;76.60
33271;DHT22;53180;51.344;6.152;2023-02-01T16:03:27;8.00;76.70
33271;DHT22;53180;51.344;6.152;2023-02-01T16:06:04;8.00;76.70
33271;DHT22;53180;51.344;6.152;2023-02-01T16:08:34;8.00;76.70
33271;DHT22;53180;51.344;6.152;2023-02-01T16:11:23;8.00;77.00
33271;DHT22;53180;51.344;6.152;2023-02-01T16:13:58;7.90;77.10
33271;DHT22;53180;51.344;6.152;2023-02-01T16:16:28;8.00;77.10
33271;DHT22;53180;51.344;6.152;2023-02-01T16:18:57;8.00;77.40
33271;DHT22;53180;51.344;6.152;2023-02-01T16:21:25;8.00;77.30
33271;DHT22;53180;51.344;6.152;2023-02-01T16:23:54;7.90;77.40
33271;DHT22;53180;51.344;6.152;2023-02-01T16:26:22;7.90;77.50
33271;DHT22;53180;51.344;6.152;2023-02-01T16:28:51;7.90;77.60
33271;DHT22;53180;51.344;6.152;2023-02-01T16:31:25;7.90;77.60
33271;DHT22;53180;51.344;6.152;2023-02-01T16:33:55;7.90;77.70
33271;DHT22;53180;51.344;6.152;2023-02-01T16:36:24;7.90;77.70
33271;DHT22;53180;51.344;6.152;2023-02-01T16:38:54;7.90;77.60
33271;DHT22;53180;51.344;6.152;2023-02-01T16:41:23;7.90;77.50
33271;DHT22;53180;51.344;6.152;2023-02-01T16:43:53;7.90;77.40
33271;DHT22;53180;51.344;6.152;2023-02-01T16:46:24;7.90;77.40
33271;DHT22;53180;51.344;6.152;2023-02-01T16:48:56;7.90;77.40
33271;DHT22;53180;51.344;6.152;2023-02-01T16:51:28;7.90;77.40